ID Time Temp Humidity Light PM2.5 PM10 Voltage Extra Firmware Position Fcnt TTN version Gateways Distance RSSI LSNR Radiosettings
2026-05-08 19:55:52 19.0625°C 62.25% 3.37V v4 No position 4864 ttn.v3 - -60 12.25 868.3MHz, SF9BW125, 4/5CR
2026-05-08 19:39:28 19.0625°C 61.9375% 3.37V v4 No position 4863 ttn.v3 - -65 13.75 867.3MHz, SF9BW125, 4/5CR
2026-05-08 19:23:05 19.0625°C 61.4375% 3.37V v4 No position 4862 ttn.v3 - -65 13.5 868.1MHz, SF9BW125, 4/5CR
2026-05-08 19:06:41 19.0625°C 61.6875% 3.37V v4 No position 4861 ttn.v3 - -65 13 867.1MHz, SF9BW125, 4/5CR
2026-05-08 18:50:18 19.125°C 61.3125% 3.37V v4 No position 4860 ttn.v3 - -59 9.25 868.5MHz, SF9BW125, 4/5CR
2026-05-08 18:33:54 19.0625°C 61% 3.38V v4 No position 4859 ttn.v3 - -63 14.25 867.9MHz, SF9BW125, 4/5CR
2026-05-08 18:17:31 19.0625°C 60.75% 3.37V v4 No position 4858 ttn.v3 - -57 12.5 868.3MHz, SF9BW125, 4/5CR
2026-05-08 18:01:07 19.125°C 60.0625% 3.37V v4 No position 4857 ttn.v3 - -60 11.75 867.7MHz, SF9BW125, 4/5CR
2026-05-08 17:44:44 19.0625°C 59.6875% 3.37V v4 No position 4856 ttn.v3 - -61 11.25 868.1MHz, SF9BW125, 4/5CR
2026-05-08 17:28:20 19.0625°C 59.625% 3.37V v4 No position 4855 ttn.v3 - -60 9.25 867.5MHz, SF9BW125, 4/5CR
2026-05-08 17:11:57 19.0625°C 59.4375% 3.37V v4 No position 4854 ttn.v3 - -59 9.25 868.5MHz, SF9BW125, 4/5CR
2026-05-08 16:55:33 19°C 59.9375% 3.37V v4 No position 4853 ttn.v3 - -63 13.75 867.3MHz, SF9BW125, 4/5CR
2026-05-08 16:39:10 18.9375°C 60.1875% 3.37V v4 No position 4852 ttn.v3 - -61 12.75 868.3MHz, SF9BW125, 4/5CR
2026-05-08 16:22:46 18.9375°C 60.25% 3.37V v4 No position 4851 ttn.v3 - -65 14.25 867.1MHz, SF9BW125, 4/5CR
2026-05-08 16:06:23 19°C 60.125% 3.37V v4 No position 4850 ttn.v3 - -63 13 868.1MHz, SF9BW125, 4/5CR
2026-05-08 15:49:59 19.0625°C 60% 3.37V v4 No position 4849 ttn.v3 - -60 11.75 867.9MHz, SF9BW125, 4/5CR
2026-05-08 15:33:36 19.0625°C 59.875% 3.37V v4 No position 4848 ttn.v3 - -58 9.25 868.5MHz, SF9BW125, 4/5CR
2026-05-08 15:17:12 19°C 60% 3.37V v4 No position 4847 ttn.v3 - -63 13.5 867.7MHz, SF9BW125, 4/5CR
2026-05-08 15:00:49 18.9375°C 60.3125% 3.37V v4 No position 4846 ttn.v3 - -61 13.25 868.3MHz, SF9BW125, 4/5CR
2026-05-08 14:44:26 18.875°C 60.5% 3.37V v4 No position 4845 ttn.v3 - -60 9 867.5MHz, SF9BW125, 4/5CR
2026-05-08 14:28:02 18.8125°C 60.4375% 3.37V v4 No position 4844 ttn.v3 - -59 12.75 868.1MHz, SF9BW125, 4/5CR
2026-05-08 14:11:39 19°C 59.9375% 3.37V v4 No position 4843 ttn.v3 - -65 12.75 867.3MHz, SF9BW125, 4/5CR
2026-05-08 13:55:15 18.8125°C 59% 3.37V v4 No position 4842 ttn.v3 - -59 9.25 868.5MHz, SF9BW125, 4/5CR
2026-05-08 13:38:52 19.0625°C 60.75% 3.37V v4 No position 4841 ttn.v3 - -63 12 867.1MHz, SF9BW125, 4/5CR
- -110 -13.25 867.1MHz, SF9BW125, 4/5CR
2026-05-08 13:22:28 19.0625°C 60.8125% 3.37V v4 No position 4840 ttn.v3 - -65 14 868.3MHz, SF9BW125, 4/5CR
2026-05-08 13:06:05 18.8125°C 62% 3.37V v4 No position 4839 ttn.v3 - -67 13 867.9MHz, SF9BW125, 4/5CR
- -111 -12.5 867.9MHz, SF9BW125, 4/5CR
2026-05-08 12:49:42 18.5625°C 62% 3.37V v4 No position 4838 ttn.v3 - -59 12 868.1MHz, SF9BW125, 4/5CR
- -110 -13 868.1MHz, SF9BW125, 4/5CR
2026-05-08 12:33:18 18.625°C 62.5625% 3.37V v4 No position 4837 ttn.v3 - -61 13 867.7MHz, SF9BW125, 4/5CR
2026-05-08 12:16:55 18.6875°C 64.125% 3.37V v4 No position 4836 ttn.v3 - -59 8.5 868.5MHz, SF9BW125, 4/5CR
2026-05-08 12:00:32 18.625°C 64% 3.37V v4 No position 4835 ttn.v3 - -61 9.5 867.5MHz, SF9BW125, 4/5CR
2026-05-08 11:44:08 18.625°C 63.9375% 3.37V v4 No position 4834 ttn.v3 - -63 13.75 868.3MHz, SF9BW125, 4/5CR
2026-05-08 11:27:45 18.6875°C 63.9375% 3.37V v4 No position 4833 ttn.v3 - -65 13.25 867.3MHz, SF9BW125, 4/5CR
2026-05-08 11:11:22 18.6875°C 63.375% 3.37V v4 No position 4832 ttn.v3 - -61 12.25 868.1MHz, SF9BW125, 4/5CR
2026-05-08 10:54:58 18.5°C 62.8125% 3.38V v4 No position 4831 ttn.v3 - -67 12.5 867.1MHz, SF9BW125, 4/5CR
- -107 -11.75 867.1MHz, SF9BW125, 4/5CR
2026-05-08 10:38:35 18.625°C 63.5% 3.38V v4 No position 4830 ttn.v3 - -58 9.25 868.5MHz, SF9BW125, 4/5CR
2026-05-08 10:22:12 18.5625°C 63.6875% 3.37V v4 No position 4829 ttn.v3 - -65 12.25 867.9MHz, SF9BW125, 4/5CR
2026-05-08 10:05:48 18.4375°C 63.75% 3.37V v4 No position 4828 ttn.v3 - -65 13.5 868.3MHz, SF9BW125, 4/5CR
2026-05-08 09:49:25 18.3125°C 63.875% 3.37V v4 No position 4827 ttn.v3 - -61 12 867.7MHz, SF9BW125, 4/5CR
2026-05-08 09:33:02 18.1875°C 64% 3.37V v4 No position 4826 ttn.v3 - -60 11.5 868.1MHz, SF9BW125, 4/5CR
2026-05-08 09:16:39 18.0625°C 64.25% 3.37V v4 No position 4825 ttn.v3 - -65 8.5 867.5MHz, SF9BW125, 4/5CR
2026-05-08 09:00:16 18.0625°C 64.25% 3.37V v4 No position 4824 ttn.v3 - -63 9 868.5MHz, SF9BW125, 4/5CR
2026-05-08 08:43:52 18°C 64.3125% 3.37V v4 No position 4823 ttn.v3 - -67 13.75 867.3MHz, SF9BW125, 4/5CR
2026-05-08 08:27:29 17.9375°C 64.375% 3.38V v4 No position 4822 ttn.v3 - -63 12.75 868.3MHz, SF9BW125, 4/5CR
2026-05-08 08:11:06 17.875°C 64.5% 3.37V v4 No position 4821 ttn.v3 - -71 12.5 867.1MHz, SF9BW125, 4/5CR
2026-05-08 07:54:43 17.875°C 64.5625% 3.37V v4 No position 4820 ttn.v3 - -65 13.25 868.1MHz, SF9BW125, 4/5CR
2026-05-08 07:38:20 17.8125°C 64.5625% 3.37V v4 No position 4819 ttn.v3 - -65 13.75 867.9MHz, SF9BW125, 4/5CR
2026-05-08 07:21:57 17.8125°C 64.5625% 3.37V v4 No position 4818 ttn.v3 - -61 9.25 868.5MHz, SF9BW125, 4/5CR
2026-05-08 07:05:34 17.75°C 64.5625% 3.37V v4 No position 4817 ttn.v3 - -63 13 867.7MHz, SF9BW125, 4/5CR
2026-05-08 06:49:11 17.75°C 64.5625% 3.38V v4 No position 4816 ttn.v3 - -61 12 868.3MHz, SF9BW125, 4/5CR
2026-05-08 06:32:48 17.75°C 64.5625% 3.37V v4 No position 4815 ttn.v3 - -60 9.5 867.5MHz, SF9BW125, 4/5CR
2026-05-08 06:16:25 17.75°C 64.5% 3.37V v4 No position 4814 ttn.v3 - -65 14 868.1MHz, SF9BW125, 4/5CR
2026-05-08 06:00:02 17.75°C 64.5625% 3.38V v4 No position 4813 ttn.v3 - -65 13.5 867.3MHz, SF9BW125, 4/5CR
- -103 -11.5 867.3MHz, SF9BW125, 4/5CR
2026-05-08 05:43:39 17.75°C 64.625% 3.37V v4 No position 4812 ttn.v3 - -63 9.25 868.5MHz, SF9BW125, 4/5CR
2026-05-08 05:27:16 17.8125°C 64.3125% 3.37V v4 No position 4811 ttn.v3 - -65 13.25 867.1MHz, SF9BW125, 4/5CR
2026-05-08 05:10:52 17.8125°C 64.25% 3.38V v4 No position 4810 ttn.v3 - -63 13 868.3MHz, SF9BW125, 4/5CR
2026-05-08 04:54:29 17.8125°C 64.25% 3.37V v4 No position 4809 ttn.v3 - -67 13 867.9MHz, SF9BW125, 4/5CR
2026-05-08 04:38:06 17.8125°C 64.1875% 3.37V v4 No position 4808 ttn.v3 - -65 13.5 868.1MHz, SF9BW125, 4/5CR
2026-05-08 04:21:43 17.875°C 64.125% 3.37V v4 No position 4807 ttn.v3 - -61 13.25 867.7MHz, SF9BW125, 4/5CR
2026-05-08 04:05:20 17.875°C 64.125% 3.37V v4 No position 4806 ttn.v3 - -58 9 868.5MHz, SF9BW125, 4/5CR
2026-05-08 03:48:57 17.875°C 64% 3.37V v4 No position 4805 ttn.v3 - -63 9.5 867.5MHz, SF9BW125, 4/5CR
2026-05-08 03:32:34 17.875°C 64% 3.37V v4 No position 4804 ttn.v3 - -61 12.25 868.3MHz, SF9BW125, 4/5CR
2026-05-08 03:16:11 17.9375°C 63.9375% 3.37V v4 No position 4803 ttn.v3 - -65 13.25 867.3MHz, SF9BW125, 4/5CR
2026-05-08 02:59:48 18°C 63.875% 3.37V v4 No position 4802 ttn.v3 - -65 14.25 868.1MHz, SF9BW125, 4/5CR
2026-05-08 02:43:24 18°C 63.8125% 3.37V v4 No position 4801 ttn.v3 - -67 12.25 867.1MHz, SF9BW125, 4/5CR
2026-05-08 02:29:14 18°C 63.9375% 3.37V v4 No position 4800 ttn.v3 - -63 8.75 868.5MHz, SF12BW125, 4/5CR
2026-05-08 02:10:49 18°C 63.6875% 3.37V v4 No position 4799 ttn.v3 - -67 13.5 867.9MHz, SF9BW125, 4/5CR
2026-05-08 01:54:26 18.0625°C 63.75% 3.37V v4 No position 4798 ttn.v3 - -65 13.5 868.3MHz, SF9BW125, 4/5CR
2026-05-08 01:38:03 18.0625°C 63.6875% 3.37V v4 No position 4797 ttn.v3 - -63 13.5 867.7MHz, SF9BW125, 4/5CR
2026-05-08 01:21:40 18.125°C 63.5% 3.37V v4 No position 4796 ttn.v3 - -63 12.5 868.1MHz, SF9BW125, 4/5CR
2026-05-08 01:05:16 18.1875°C 63.4375% 3.37V v4 No position 4795 ttn.v3 - -61 9.25 867.5MHz, SF9BW125, 4/5CR
2026-05-08 00:48:53 18.25°C 63.375% 3.37V v4 No position 4794 ttn.v3 - -61 8.5 868.5MHz, SF9BW125, 4/5CR
2026-05-08 00:32:30 18.25°C 63.3125% 3.38V v4 No position 4793 ttn.v3 - -67 13.25 867.3MHz, SF9BW125, 4/5CR
2026-05-08 00:16:07 18.25°C 63.1875% 3.37V v4 No position 4792 ttn.v3 - -65 13.75 868.3MHz, SF9BW125, 4/5CR
2026-05-07 23:59:43 18.25°C 63.125% 3.37V v4 No position 4791 ttn.v3 - -67 13 867.1MHz, SF9BW125, 4/5CR
- -108 -10.75 867.1MHz, SF9BW125, 4/5CR
2026-05-07 23:43:20 18.25°C 62.875% 3.38V v4 No position 4790 ttn.v3 - -65 12.75 868.1MHz, SF9BW125, 4/5CR
2026-05-07 23:26:57 18.25°C 62.8125% 3.37V v4 No position 4789 ttn.v3 - -71 12.5 867.9MHz, SF9BW125, 4/5CR
2026-05-07 23:10:34 18.25°C 62.625% 3.37V v4 No position 4788 ttn.v3 - -63 9 868.5MHz, SF9BW125, 4/5CR
2026-05-07 22:54:11 18.3125°C 62.5% 3.37V v4 No position 4787 ttn.v3 - -65 13.5 867.7MHz, SF9BW125, 4/5CR
2026-05-07 22:37:47 18.3125°C 62.4375% 3.37V v4 No position 4786 ttn.v3 - -63 12 868.3MHz, SF9BW125, 4/5CR
2026-05-07 22:21:24 18.3125°C 62.375% 3.37V v4 No position 4785 ttn.v3 - -63 9 867.5MHz, SF9BW125, 4/5CR
2026-05-07 22:05:01 18.3125°C 62.3125% 3.37V v4 No position 4784 ttn.v3 - -65 12.75 868.1MHz, SF9BW125, 4/5CR
2026-05-07 21:48:37 18.3125°C 62.3125% 3.37V v4 No position 4783 ttn.v3 - -63 12.5 867.3MHz, SF9BW125, 4/5CR
2026-05-07 21:32:14 18.3125°C 62.25% 3.37V v4 No position 4782 ttn.v3 - -63 8.75 868.5MHz, SF9BW125, 4/5CR
2026-05-07 21:15:51 18.3125°C 62.0625% 3.37V v4 No position 4781 ttn.v3 - -65 12.5 867.1MHz, SF9BW125, 4/5CR
- -110 -9.25 867.1MHz, SF9BW125, 4/5CR
2026-05-07 20:59:28 18.3125°C 61.9375% 3.37V v4 No position 4780 ttn.v3 - -63 13 868.3MHz, SF9BW125, 4/5CR
2026-05-07 20:43:04 18.5625°C 62% 3.37V v4 No position 4779 ttn.v3 - -61 13 867.9MHz, SF9BW125, 4/5CR
2026-05-07 20:26:41 18.6875°C 62.4375% 3.37V v4 No position 4778 ttn.v3 - -59 12 868.1MHz, SF9BW125, 4/5CR
2026-05-07 20:10:18 18.625°C 62.625% 3.37V v4 No position 4777 ttn.v3 - -61 12.75 867.7MHz, SF9BW125, 4/5CR
2026-05-07 19:53:54 18.5°C 61.6875% 3.37V v4 No position 4776 ttn.v3 - -67 9 868.5MHz, SF9BW125, 4/5CR
2026-05-07 19:37:31 18.5°C 61.6875% 3.37V v4 No position 4775 ttn.v3 - -60 9.25 867.5MHz, SF9BW125, 4/5CR
2026-05-07 19:21:08 18.4375°C 60.375% 3.37V v4 No position 4774 ttn.v3 - -59 14 868.3MHz, SF9BW125, 4/5CR
2026-05-07 19:04:44 18.5°C 60.3125% 3.37V v4 No position 4773 ttn.v3 - -60 13 867.3MHz, SF9BW125, 4/5CR
2026-05-07 18:48:21 18.5625°C 60.1875% 3.37V v4 No position 4772 ttn.v3 - -61 12.5 868.1MHz, SF9BW125, 4/5CR
2026-05-07 18:31:58 18.6875°C 59.9375% 3.37V v4 No position 4771 ttn.v3 - -63 14 867.1MHz, SF9BW125, 4/5CR
- -110 -11.25 867.1MHz, SF9BW125, 4/5CR
2026-05-07 18:15:34 18.75°C 59.6875% 3.37V v4 No position 4770 ttn.v3 - -57 8.75 868.5MHz, SF9BW125, 4/5CR
2026-05-07 17:59:11 18.875°C 59.5625% 3.37V v4 No position 4769 ttn.v3 - -59 11.75 867.9MHz, SF9BW125, 4/5CR
2026-05-07 17:42:47 18.8125°C 58.5% 3.37V v4 No position 4768 ttn.v3 - -61 12 868.3MHz, SF9BW125, 4/5CR
2026-05-07 17:26:24 19°C 58.375% 3.37V v4 No position 4767 ttn.v3 - -63 13.5 867.7MHz, SF9BW125, 4/5CR
2026-05-07 17:10:00 19.0625°C 58.875% 3.37V v4 No position 4766 ttn.v3 - -60 12.5 868.1MHz, SF9BW125, 4/5CR
2026-05-07 16:53:37 19.0625°C 58.75% 3.37V v4 No position 4765 ttn.v3 - -56 9 867.5MHz, SF9BW125, 4/5CR
2026-05-07 16:37:14 19°C 59.0625% 3.37V v4 No position 4764 ttn.v3 - -60 9.25 868.5MHz, SF9BW125, 4/5CR
2026-05-07 16:20:50 19°C 58.625% 3.37V v4 No position 4763 ttn.v3 - -65 13.25 867.3MHz, SF9BW125, 4/5CR
2026-05-07 16:04:27 18.875°C 58.625% 3.37V v4 No position 4762 ttn.v3 - -58 12.25 868.3MHz, SF9BW125, 4/5CR
2026-05-07 15:48:03 18.75°C 58.8125% 3.37V v4 No position 4761 ttn.v3 - -65 14.25 867.1MHz, SF9BW125, 4/5CR
2026-05-07 15:31:40 18.8125°C 57.375% 3.37V v4 No position 4760 ttn.v3 - -63 13.75 868.1MHz, SF9BW125, 4/5CR
2026-05-07 15:15:16 19°C 58.625% 3.37V v4 No position 4759 ttn.v3 - -65 13.5 867.9MHz, SF9BW125, 4/5CR
2026-05-07 14:58:53 18.9375°C 58.4375% 3.37V v4 No position 4758 ttn.v3 - -58 10 868.5MHz, SF9BW125, 4/5CR
2026-05-07 14:42:29 18.875°C 58.3125% 3.38V v4 No position 4757 ttn.v3 - -63 14 867.7MHz, SF9BW125, 4/5CR
- -109 -11 867.7MHz, SF9BW125, 4/5CR
2026-05-07 14:26:06 18.6875°C 58.375% 3.38V v4 No position 4756 ttn.v3 - -63 12.25 868.3MHz, SF9BW125, 4/5CR
2026-05-07 14:09:43 18.5625°C 58.375% 3.37V v4 No position 4755 ttn.v3 - -60 8.5 867.5MHz, SF9BW125, 4/5CR
2026-05-07 13:53:20 18.25°C 57.8125% 3.37V v4 No position 4754 ttn.v3 - -63 14 868.1MHz, SF9BW125, 4/5CR
2026-05-07 13:36:56 18.1875°C 57.8125% 3.37V v4 No position 4753 ttn.v3 - -60 12.75 867.3MHz, SF9BW125, 4/5CR
2026-05-07 13:20:33 18.1875°C 58.625% 3.37V v4 No position 4752 ttn.v3 - -59 9 868.5MHz, SF9BW125, 4/5CR
2026-05-07 13:04:10 18.375°C 59.1875% 3.37V v4 No position 4751 ttn.v3 - -63 12.25 867.1MHz, SF9BW125, 4/5CR
2026-05-07 12:47:47 18.75°C 63% 3.37V v4 No position 4750 ttn.v3 - -55 13 868.3MHz, SF9BW125, 4/5CR
2026-05-07 12:31:23 18.5625°C 63.3125% 3.37V v4 No position 4749 ttn.v3 - -61 12.25 867.9MHz, SF9BW125, 4/5CR
2026-05-07 12:15:00 18.5625°C 63.4375% 3.37V v4 No position 4748 ttn.v3 - -61 13.5 868.1MHz, SF9BW125, 4/5CR
2026-05-07 11:58:37 18.375°C 63.625% 3.37V v4 No position 4747 ttn.v3 - -61 13.5 867.7MHz, SF9BW125, 4/5CR
2026-05-07 11:42:13 18.25°C 63.875% 3.37V v4 No position 4746 ttn.v3 - -54 9 868.5MHz, SF9BW125, 4/5CR
2026-05-07 11:25:50 18.25°C 63.9375% 3.37V v4 No position 4745 ttn.v3 - -60 9.5 867.5MHz, SF9BW125, 4/5CR
2026-05-07 11:09:27 18.1875°C 64% 3.37V v4 No position 4744 ttn.v3 - -57 13 868.3MHz, SF9BW125, 4/5CR
2026-05-07 10:53:04 18.125°C 64% 3.37V v4 No position 4743 ttn.v3 - -60 13.25 867.3MHz, SF9BW125, 4/5CR
- -107 -11.75 867.3MHz, SF9BW125, 4/5CR
2026-05-07 10:36:40 18.0625°C 64% 3.37V v4 No position 4742 ttn.v3 - -60 12.5 868.1MHz, SF9BW125, 4/5CR
2026-05-07 10:20:17 18.0625°C 64.0625% 3.37V v4 No position 4741 ttn.v3 - -65 13 867.1MHz, SF9BW125, 4/5CR
2026-05-07 10:03:54 18°C 64% 3.37V v4 No position 4740 ttn.v3 - -61 9.25 868.5MHz, SF9BW125, 4/5CR
2026-05-07 09:47:31 18.0625°C 64.3125% 3.38V v4 No position 4739 ttn.v3 - -61 13 867.9MHz, SF9BW125, 4/5CR
2026-05-07 09:31:08 18°C 64.25% 3.38V v4 No position 4738 ttn.v3 - -65 13.25 868.3MHz, SF9BW125, 4/5CR
2026-05-07 09:14:45 17.9375°C 64.4375% 3.37V v4 No position 4737 ttn.v3 - -63 13 867.7MHz, SF9BW125, 4/5CR
2026-05-07 08:58:21 17.9375°C 64.5% 3.37V v4 No position 4736 ttn.v3 - -63 13.25 868.1MHz, SF9BW125, 4/5CR
2026-05-07 08:41:58 17.9375°C 64.6875% 3.37V v4 No position 4735 ttn.v3 - -61 9.75 867.5MHz, SF9BW125, 4/5CR
2026-05-07 08:25:35 17.9375°C 65.125% 3.38V v4 No position 4734 ttn.v3 - -60 8.75 868.5MHz, SF9BW125, 4/5CR
2026-05-07 08:09:12 17.9375°C 65.25% 3.37V v4 No position 4733 ttn.v3 - -63 13.75 867.3MHz, SF9BW125, 4/5CR
2026-05-07 07:52:49 17.875°C 64.9375% 3.37V v4 No position 4732 ttn.v3 - -59 12.25 868.3MHz, SF9BW125, 4/5CR
2026-05-07 07:36:26 17.875°C 65% 3.37V v4 No position 4731 ttn.v3 - -61 12.25 867.1MHz, SF9BW125, 4/5CR
- -109 -11.25 867.1MHz, SF9BW125, 4/5CR
2026-05-07 07:20:03 17.8125°C 65% 3.37V v4 No position 4730 ttn.v3 - -63 13.75 868.1MHz, SF9BW125, 4/5CR
2026-05-07 07:03:40 17.75°C 65.0625% 3.37V v4 No position 4729 ttn.v3 - -65 14.5 867.9MHz, SF9BW125, 4/5CR
2026-05-07 06:47:17 17.75°C 64.9375% 3.37V v4 No position 4728 ttn.v3 - -60 9.5 868.5MHz, SF9BW125, 4/5CR
2026-05-07 06:14:31 17.6875°C 65% 3.37V v4 No position 4726 ttn.v3 - -59 12.25 868.3MHz, SF9BW125, 4/5CR
2026-05-07 05:58:07 17.6875°C 65.0625% 3.37V v4 No position 4725 ttn.v3 - -61 9.5 867.5MHz, SF9BW125, 4/5CR
2026-05-07 05:41:44 17.6875°C 65.0625% 3.37V v4 No position 4724 ttn.v3 - -61 12.5 868.1MHz, SF9BW125, 4/5CR
2026-05-07 05:25:21 17.75°C 65.0625% 3.37V v4 No position 4723 ttn.v3 - -60 11.75 867.3MHz, SF9BW125, 4/5CR
2026-05-07 05:08:58 17.75°C 65.0625% 3.37V v4 No position 4722 ttn.v3 - -60 10 868.5MHz, SF9BW125, 4/5CR
2026-05-07 04:52:35 17.8125°C 65.0625% 3.37V v4 No position 4721 ttn.v3 - -63 12.75 867.1MHz, SF9BW125, 4/5CR
2026-05-07 04:36:12 17.75°C 65.125% 3.38V v4 No position 4720 ttn.v3 - -59 12.5 868.3MHz, SF9BW125, 4/5CR
2026-05-07 04:19:49 17.8125°C 65.125% 3.37V v4 No position 4719 ttn.v3 - -65 13.25 867.9MHz, SF9BW125, 4/5CR
- -110 -10.75 867.9MHz, SF9BW125, 4/5CR
2026-05-07 04:03:26 17.875°C 65.125% 3.37V v4 No position 4718 ttn.v3 - -63 14 868.1MHz, SF9BW125, 4/5CR
2026-05-07 03:30:40 17.875°C 65.1875% 3.37V v4 No position 4716 ttn.v3 - -61 10 868.5MHz, SF9BW125, 4/5CR
2026-05-07 03:14:17 17.9375°C 65.1875% 3.38V v4 No position 4715 ttn.v3 - -60 8.75 867.5MHz, SF9BW125, 4/5CR
- -107 -11 867.5MHz, SF9BW125, 4/5CR
2026-05-07 02:57:54 17.9375°C 65.1875% 3.37V v4 No position 4714 ttn.v3 - -60 12.75 868.3MHz, SF9BW125, 4/5CR
2026-05-07 02:41:30 18°C 65.1875% 3.38V v4 No position 4713 ttn.v3 - -65 14.5 867.3MHz, SF9BW125, 4/5CR
2026-05-07 02:25:07 18.0625°C 65.1875% 3.37V v4 No position 4712 ttn.v3 - -61 12 868.1MHz, SF9BW125, 4/5CR
2026-05-07 02:08:44 18.0625°C 65.25% 3.37V v4 No position 4711 ttn.v3 - -63 13 867.1MHz, SF9BW125, 4/5CR
2026-05-07 01:52:21 18.0625°C 65.25% 3.37V v4 No position 4710 ttn.v3 - -59 9.75 868.5MHz, SF9BW125, 4/5CR
2026-05-07 01:35:58 18.125°C 65.25% 3.38V v4 No position 4709 ttn.v3 - -61 13.75 867.9MHz, SF9BW125, 4/5CR
2026-05-07 01:19:34 18.125°C 65.25% 3.37V v4 No position 4708 ttn.v3 - -61 12 868.3MHz, SF9BW125, 4/5CR
2026-05-07 01:03:11 18.1875°C 65.25% 3.37V v4 No position 4707 ttn.v3 - -60 12 867.7MHz, SF9BW125, 4/5CR
2026-05-07 00:46:48 18.25°C 65.1875% 3.37V v4 No position 4706 ttn.v3 - -60 12 868.1MHz, SF9BW125, 4/5CR
2026-05-07 00:30:25 18.3125°C 65.125% 3.37V v4 No position 4705 ttn.v3 - -61 8.75 867.5MHz, SF9BW125, 4/5CR
2026-05-07 00:16:14 18.3125°C 65.25% 3.37V v4 No position 4704 ttn.v3 - -56 8.75 868.5MHz, SF12BW125, 4/5CR
2026-05-06 23:57:49 18.3125°C 65.25% 3.37V v4 No position 4703 ttn.v3 - -60 12.25 867.3MHz, SF9BW125, 4/5CR
2026-05-06 23:41:26 18.375°C 65.3125% 3.37V v4 No position 4702 ttn.v3 - -65 13.5 868.3MHz, SF9BW125, 4/5CR
2026-05-06 23:25:02 18.375°C 65.1875% 3.37V v4 No position 4701 ttn.v3 - -63 12.75 867.1MHz, SF9BW125, 4/5CR
2026-05-06 23:08:39 18.375°C 65.125% 3.37V v4 No position 4700 ttn.v3 - -63 14.5 868.1MHz, SF9BW125, 4/5CR
2026-05-06 22:52:16 18.4375°C 65.125% 3.37V v4 No position 4699 ttn.v3 - -65 13.75 867.9MHz, SF9BW125, 4/5CR
2026-05-06 22:35:53 18.4375°C 65% 3.37V v4 No position 4698 ttn.v3 - -59 9.75 868.5MHz, SF9BW125, 4/5CR
2026-05-06 22:19:29 18.4375°C 65% 3.37V v4 No position 4697 ttn.v3 - -65 13.5 867.7MHz, SF9BW125, 4/5CR
2026-05-06 22:03:06 18.4375°C 65.0625% 3.37V v4 No position 4696 ttn.v3 - -58 11.75 868.3MHz, SF9BW125, 4/5CR
2026-05-06 21:46:43 18.4375°C 64.8125% 3.37V v4 No position 4695 ttn.v3 - -65 8.75 867.5MHz, SF9BW125, 4/5CR
2026-05-06 21:30:19 18.4375°C 64.875% 3.37V v4 No position 4694 ttn.v3 - -67 13.5 868.1MHz, SF9BW125, 4/5CR
2026-05-06 21:13:56 18.5°C 65% 3.37V v4 No position 4693 ttn.v3 - -65 12.75 867.3MHz, SF9BW125, 4/5CR
2026-05-06 20:57:33 18.625°C 64.9375% 3.37V v4 No position 4692 ttn.v3 - -61 8.5 868.5MHz, SF9BW125, 4/5CR
2026-05-06 20:41:09 18.625°C 64.875% 3.37V v4 No position 4691 ttn.v3 - -66 11.75 867.1MHz, SF9BW125, 4/5CR
2026-05-06 20:24:46 18.75°C 64.9375% 3.37V v4 No position 4690 ttn.v3 - -61 13.25 868.3MHz, SF9BW125, 4/5CR
2026-05-06 20:08:23 18.75°C 65.125% 3.37V v4 No position 4689 ttn.v3 - -65 12.5 867.9MHz, SF9BW125, 4/5CR
2026-05-06 19:51:59 18.875°C 64.875% 3.37V v4 No position 4688 ttn.v3 - -65 13.25 868.1MHz, SF9BW125, 4/5CR
- -109 -12.5 868.1MHz, SF9BW125, 4/5CR
2026-05-06 19:35:36 18.9375°C 64.6875% 3.37V v4 No position 4687 ttn.v3 - -65 13.5 867.7MHz, SF9BW125, 4/5CR
- -104 -10.5 867.7MHz, SF9BW125, 4/5CR
2026-05-06 19:19:13 19°C 64.625% 3.37V v4 No position 4686 ttn.v3 - -61 9 868.5MHz, SF9BW125, 4/5CR
2026-05-06 19:02:49 19.0625°C 64.4375% 3.37V v4 No position 4685 ttn.v3 - -65 8.75 867.5MHz, SF9BW125, 4/5CR
2026-05-06 18:46:25 19.0625°C 64.25% 3.37V v4 No position 4684 ttn.v3 - -63 13.5 868.3MHz, SF9BW125, 4/5CR
2026-05-06 18:30:02 18.9375°C 63.8125% 3.37V v4 No position 4683 ttn.v3 - -61 12.5 867.3MHz, SF9BW125, 4/5CR
- -108 -13 867.3MHz, SF9BW125, 4/5CR
2026-05-06 18:13:38 18.8125°C 63.125% 3.37V v4 No position 4682 ttn.v3 - -65 13.25 868.1MHz, SF9BW125, 4/5CR
2026-05-06 17:57:15 18.9375°C 62.75% 3.37V v4 No position 4681 ttn.v3 - -67 13.5 867.1MHz, SF9BW125, 4/5CR
- -107 -13.25 867.1MHz, SF9BW125, 4/5CR
2026-05-06 17:40:51 18.8125°C 62.9375% 3.37V v4 No position 4680 ttn.v3 - -59 9 868.5MHz, SF9BW125, 4/5CR
2026-05-06 17:24:28 18.875°C 62.8125% 3.37V v4 No position 4679 ttn.v3 - -65 13.75 867.9MHz, SF9BW125, 4/5CR
2026-05-06 17:08:05 19°C 62.625% 3.37V v4 No position 4678 ttn.v3 - -63 13.75 868.3MHz, SF9BW125, 4/5CR
2026-05-06 16:51:41 19.0625°C 62.6875% 3.37V v4 No position 4677 ttn.v3 - -65 13.25 867.7MHz, SF9BW125, 4/5CR
2026-05-06 16:35:17 19°C 62.6875% 3.37V v4 No position 4676 ttn.v3 - -69 13.5 868.1MHz, SF9BW125, 4/5CR
2026-05-06 16:18:54 19.0625°C 62.6875% 3.37V v4 No position 4675 ttn.v3 - -65 8.5 867.5MHz, SF9BW125, 4/5CR
2026-05-06 16:02:31 19.1875°C 62.625% 3.37V v4 No position 4674 ttn.v3 - -65 8.25 868.5MHz, SF9BW125, 4/5CR
2026-05-06 15:46:07 19.4375°C 62.4375% 3.37V v4 No position 4673 ttn.v3 - -67 13 867.3MHz, SF9BW125, 4/5CR
2026-05-06 15:29:43 19.625°C 62.5625% 3.37V v4 No position 4672 ttn.v3 - -65 12.25 868.3MHz, SF9BW125, 4/5CR
2026-05-06 15:13:20 19.375°C 62.25% 3.37V v4 No position 4671 ttn.v3 - -63 12.75 867.1MHz, SF9BW125, 4/5CR
2026-05-06 14:56:56 19.4375°C 62.875% 3.37V v4 No position 4670 ttn.v3 - -63 12 868.1MHz, SF9BW125, 4/5CR
2026-05-06 14:40:32 19.3125°C 63.3125% 3.37V v4 No position 4669 ttn.v3 - -63 13.75 867.9MHz, SF9BW125, 4/5CR
2026-05-06 14:24:09 19.4375°C 63.25% 3.37V v4 No position 4668 ttn.v3 - -59 9 868.5MHz, SF9BW125, 4/5CR
2026-05-06 14:07:45 19.5°C 63.1875% 3.37V v4 No position 4667 ttn.v3 - -61 13.5 867.7MHz, SF9BW125, 4/5CR
2026-05-06 13:51:22 19.5625°C 63.25% 3.37V v4 No position 4666 ttn.v3 - -63 12.75 868.3MHz, SF9BW125, 4/5CR
2026-05-06 13:34:58 19.5°C 63.3125% 3.37V v4 No position 4665 ttn.v3 - -58 9.25 867.5MHz, SF9BW125, 4/5CR
2026-05-06 13:18:34 19.5°C 63.625% 3.37V v4 No position 4664 ttn.v3 - -58 12.5 868.1MHz, SF9BW125, 4/5CR
2026-05-06 13:02:11 19.375°C 64.0625% 3.37V v4 No position 4663 ttn.v3 - -61 13.5 867.3MHz, SF9BW125, 4/5CR

Message count: 200
Node count: 1

Messages per node

Number of messages in list aboveNodes
200

Statistics per gateway

GatewayNumber of messagesNumber of nodesNodes
2001
171

Filter by dataset